createdAt,value
2023-01-26T00:01:29.386Z,4.07
2023-01-26T00:04:15.944Z,3.60
2023-01-26T00:07:02.021Z,4.80
2023-01-26T00:09:48.381Z,3.63
2023-01-26T00:12:36.498Z,4.37
2023-01-26T00:15:22.841Z,3.40
2023-01-26T00:18:10.486Z,3.43
2023-01-26T00:20:57.778Z,5.33
2023-01-26T00:23:44.320Z,2.73
2023-01-26T00:26:30.389Z,2.60
2023-01-26T00:29:18.062Z,3.03
2023-01-26T00:32:04.556Z,3.07
2023-01-26T00:34:50.925Z,3.90
2023-01-26T00:37:37.665Z,2.70
2023-01-26T00:40:23.791Z,4.30
2023-01-26T00:43:09.974Z,3.23
2023-01-26T00:45:57.913Z,3.73
2023-01-26T00:48:44.260Z,2.83
2023-01-26T00:51:30.326Z,2.83
2023-01-26T00:54:16.867Z,3.40
2023-01-26T00:57:03.269Z,3.63
2023-01-26T00:59:49.717Z,2.67
2023-01-26T01:02:37.584Z,3.60
2023-01-26T01:05:23.942Z,3.80
2023-01-26T01:08:10.143Z,4.10
2023-01-26T01:11:03.712Z,3.70
2023-01-26T01:13:50.351Z,2.83
2023-01-26T01:16:36.434Z,3.77
2023-01-26T01:19:24.386Z,3.57
2023-01-26T01:22:11.177Z,2.93
2023-01-26T01:24:57.628Z,2.73
2023-01-26T01:27:44.018Z,3.27
2023-01-26T01:30:30.254Z,3.27
2023-01-26T01:33:16.810Z,3.73
2023-01-26T01:36:05.900Z,3.47
2023-01-26T01:38:52.080Z,3.37
2023-01-26T01:41:38.279Z,3.50
2023-01-26T01:44:25.316Z,2.20
2023-01-26T01:47:14.456Z,2.33
2023-01-26T01:50:04.256Z,3.87
2023-01-26T01:52:53.556Z,3.93
2023-01-26T01:55:40.526Z,3.10
2023-01-26T01:58:28.529Z,3.30
2023-01-26T02:01:14.845Z,3.93
2023-01-26T02:04:02.887Z,4.63
2023-01-26T02:06:50.470Z,4.00
2023-01-26T02:09:57.457Z,3.23
2023-01-26T02:12:44.497Z,3.70
2023-01-26T02:15:31.315Z,5.30
2023-01-26T02:18:18.129Z,3.43
2023-01-26T02:21:05.096Z,4.13
2023-01-26T02:23:55.885Z,2.97
2023-01-26T02:26:44.007Z,3.97
2023-01-26T02:29:30.447Z,3.37
2023-01-26T02:32:16.723Z,4.23
2023-01-26T02:35:03.174Z,3.07
2023-01-26T02:37:49.525Z,3.83
2023-01-26T02:40:39.039Z,3.27
2023-01-26T02:43:26.807Z,3.13
2023-01-26T02:46:13.154Z,4.30
2023-01-26T02:49:13.127Z,2.93
2023-01-26T02:51:59.767Z,4.40
2023-01-26T02:55:03.671Z,4.53
2023-01-26T02:57:50.087Z,4.67
2023-01-26T03:00:38.350Z,5.10
2023-01-26T03:03:26.777Z,4.50
2023-01-26T03:06:13.314Z,3.97
2023-01-26T03:08:59.548Z,4.00
2023-01-26T03:11:45.775Z,5.03
2023-01-26T03:14:31.916Z,4.33
2023-01-26T03:17:19.719Z,3.73
2023-01-26T03:20:24.693Z,4.30
2023-01-26T03:23:28.192Z,4.77
2023-01-26T03:26:32.344Z,4.93
2023-01-26T03:29:18.837Z,4.13
2023-01-26T03:32:05.511Z,3.33
2023-01-26T03:34:53.287Z,3.53
2023-01-26T03:37:43.593Z,5.90
2023-01-26T03:40:47.165Z,4.17
2023-01-26T03:43:50.579Z,4.10
2023-01-26T03:46:54.456Z,4.10
2023-01-26T03:49:58.461Z,5.17
2023-01-26T03:53:04.066Z,4.63
2023-01-26T03:56:07.829Z,3.50
2023-01-26T03:58:55.088Z,5.53
2023-01-26T04:01:42.679Z,4.13
2023-01-26T04:04:46.275Z,3.77
2023-01-26T04:07:49.907Z,3.53
2023-01-26T04:10:38.058Z,6.80
2023-01-26T04:13:42.967Z,5.30
2023-01-26T04:16:46.903Z,6.20
2023-01-26T04:19:51.126Z,5.33
2023-01-26T04:22:43.447Z,2.83
2023-01-26T04:25:29.614Z,4.67
2023-01-26T04:28:17.159Z,4.57
2023-01-26T04:31:04.723Z,4.63
2023-01-26T04:33:50.985Z,2.87
2023-01-26T04:36:37.407Z,2.80
2023-01-26T04:39:23.786Z,4.23
2023-01-26T04:42:10.376Z,3.07
2023-01-26T04:44:57.851Z,4.83
2023-01-26T04:47:44.185Z,3.40
2023-01-26T04:50:30.616Z,4.40
2023-01-26T04:53:17.043Z,4.73
2023-01-26T04:56:03.538Z,3.97
2023-01-26T04:58:50.287Z,5.67
2023-01-26T05:01:38.017Z,4.73
2023-01-26T05:04:27.069Z,4.77
2023-01-26T05:07:13.526Z,5.27
2023-01-26T05:10:00.173Z,4.47
2023-01-26T05:12:46.470Z,4.33
2023-01-26T05:15:32.568Z,4.33
2023-01-26T05:18:20.412Z,4.63
2023-01-26T05:21:06.827Z,4.67
2023-01-26T05:23:53.064Z,3.97
2023-01-26T05:26:39.466Z,4.57
2023-01-26T05:29:25.525Z,3.83
2023-01-26T05:32:11.842Z,3.80
2023-01-26T05:35:03.751Z,4.43
2023-01-26T05:37:51.249Z,4.00
2023-01-26T05:40:39.915Z,6.67
2023-01-26T05:43:26.822Z,5.70
2023-01-26T05:46:13.548Z,4.23
2023-01-26T05:49:00.243Z,8.73
2023-01-26T05:51:48.209Z,5.23
2023-01-26T05:54:34.417Z,4.07
2023-01-26T05:57:21.038Z,3.87
2023-01-26T06:00:08.803Z,3.13
2023-01-26T06:02:55.404Z,3.37
2023-01-26T06:05:42.695Z,5.33
2023-01-26T06:08:30.618Z,5.57
2023-01-26T06:11:16.968Z,4.20
2023-01-26T06:14:03.925Z,6.43
2023-01-26T06:16:50.190Z,5.03
2023-01-26T06:19:37.543Z,5.07
2023-01-26T06:22:23.740Z,5.63
2023-01-26T06:25:11.608Z,4.30
2023-01-26T06:27:58.477Z,5.47
2023-01-26T06:30:45.084Z,5.20
2023-01-26T06:33:34.407Z,5.40
2023-01-26T06:36:21.208Z,6.63
2023-01-26T06:39:08.279Z,4.80
2023-01-26T06:41:56.768Z,3.87
2023-01-26T06:44:42.914Z,5.50
2023-01-26T06:47:29.291Z,4.53
2023-01-26T06:50:16.006Z,7.70
2023-01-26T06:53:04.458Z,4.67
2023-01-26T06:55:52.064Z,4.60
2023-01-26T06:58:40.008Z,3.63
2023-01-26T07:01:27.521Z,4.33
2023-01-26T07:04:13.941Z,4.03
2023-01-26T07:07:00.053Z,6.00
2023-01-26T07:09:46.277Z,3.77
2023-01-26T07:12:39.096Z,5.03
2023-01-26T07:15:26.729Z,5.67
2023-01-26T07:18:13.175Z,4.90
2023-01-26T07:21:01.481Z,5.33
2023-01-26T07:23:48.110Z,3.93
2023-01-26T07:26:34.680Z,3.57
2023-01-26T07:29:21.308Z,5.30
2023-01-26T07:32:09.114Z,4.60
2023-01-26T07:34:55.530Z,6.33
2023-01-26T07:37:41.876Z,11.20
2023-01-26T07:40:27.965Z,6.43
2023-01-26T07:43:15.137Z,3.90
2023-01-26T07:46:01.474Z,5.37
2023-01-26T07:48:48.987Z,4.87
2023-01-26T07:51:35.408Z,6.07
2023-01-26T07:54:22.570Z,4.90
2023-01-26T07:57:09.013Z,4.10
2023-01-26T07:59:56.043Z,6.27
2023-01-26T08:02:42.552Z,4.27
2023-01-26T08:05:30.785Z,4.73
2023-01-26T08:08:17.174Z,4.63
2023-01-26T08:11:03.705Z,5.50
2023-01-26T08:13:50.076Z,4.30
2023-01-26T08:16:36.275Z,5.17
2023-01-26T08:19:22.590Z,5.07
2023-01-26T08:22:10.409Z,6.07
2023-01-26T08:24:56.820Z,6.10
2023-01-26T08:27:42.929Z,5.17
2023-01-26T08:30:29.415Z,5.90
2023-01-26T08:33:15.495Z,6.53
2023-01-26T08:36:05.302Z,4.97
2023-01-26T08:38:53.451Z,4.90
2023-01-26T08:41:40.048Z,5.63
2023-01-26T08:44:26.333Z,5.40
2023-01-26T08:47:12.768Z,6.60
2023-01-26T08:49:59.412Z,6.40
2023-01-26T08:52:46.046Z,4.90
2023-01-26T08:55:34.046Z,6.27
2023-01-26T08:58:21.659Z,6.37
2023-01-26T09:01:08.831Z,2.50
2023-01-26T09:03:56.404Z,6.13
2023-01-26T09:06:42.737Z,4.53
2023-01-26T09:09:29.221Z,4.03
2023-01-26T09:12:17.007Z,5.30
2023-01-26T09:15:03.829Z,5.03
2023-01-26T09:17:50.324Z,4.23
2023-01-26T09:20:36.443Z,8.83
2023-01-26T09:23:22.877Z,5.93
2023-01-26T09:26:09.008Z,10.00
2023-01-26T09:28:56.973Z,7.67
2023-01-26T09:31:43.939Z,4.50
2023-01-26T09:34:30.554Z,4.13
2023-01-26T09:37:17.125Z,5.17
2023-01-26T09:40:03.449Z,5.43
2023-01-26T09:42:56.768Z,4.30
2023-01-26T09:45:47.595Z,5.60
2023-01-26T09:48:38.971Z,5.70
2023-01-26T09:51:29.345Z,6.23
2023-01-26T09:54:21.398Z,5.73
2023-01-26T09:57:12.924Z,7.30
2023-01-26T10:00:01.527Z,6.70
2023-01-26T10:02:54.462Z,9.73
2023-01-26T10:05:43.237Z,5.57
2023-01-26T10:08:29.577Z,5.47
2023-01-26T10:11:19.101Z,4.90
2023-01-26T10:14:08.566Z,5.30
2023-01-26T10:16:55.058Z,6.50
2023-01-26T10:19:45.286Z,6.57
2023-01-26T10:22:35.187Z,6.30
2023-01-26T10:25:25.331Z,5.03
2023-01-26T10:28:14.262Z,5.87
2023-01-26T10:31:01.533Z,6.57
2023-01-26T10:33:51.329Z,5.97
2023-01-26T10:36:41.707Z,4.80
2023-01-26T10:39:28.082Z,5.80
2023-01-26T10:42:19.700Z,6.53
2023-01-26T10:45:07.349Z,6.30
2023-01-26T10:48:17.656Z,4.37
2023-01-26T10:51:15.629Z,3.83
2023-01-26T10:54:16.615Z,6.13
2023-01-26T10:57:04.837Z,4.67
2023-01-26T10:59:52.521Z,4.57
2023-01-26T11:02:39.047Z,4.37
2023-01-26T11:05:26.029Z,4.13
2023-01-26T11:08:32.680Z,6.17
2023-01-26T11:11:25.289Z,6.20
2023-01-26T11:14:12.496Z,5.40
2023-01-26T11:17:01.234Z,11.27
2023-01-26T11:19:55.784Z,5.37
2023-01-26T11:22:47.640Z,5.00
2023-01-26T11:25:36.884Z,6.73
2023-01-26T11:28:32.305Z,5.60
2023-01-26T11:31:30.610Z,4.67
2023-01-26T11:34:23.552Z,4.50
2023-01-26T11:37:19.339Z,4.47
2023-01-26T11:40:12.705Z,4.63
2023-01-26T11:43:08.679Z,3.63
2023-01-26T11:46:09.877Z,2.93
2023-01-26T11:49:05.084Z,4.87
2023-01-26T11:51:59.311Z,4.73
2023-01-26T11:54:56.101Z,4.30
2023-01-26T11:57:47.229Z,4.10
2023-01-26T12:00:39.381Z,5.40
2023-01-26T12:03:27.727Z,6.73
2023-01-26T12:06:18.055Z,10.80
2023-01-26T12:09:05.451Z,4.70
2023-01-26T12:11:55.795Z,5.33
2023-01-26T12:14:45.132Z,5.23
2023-01-26T12:17:35.063Z,10.27
2023-01-26T12:20:25.900Z,9.03
2023-01-26T12:23:18.537Z,3.87
2023-01-26T12:26:08.121Z,5.20
2023-01-26T12:28:57.914Z,4.63
2023-01-26T12:31:47.054Z,4.07
2023-01-26T12:34:34.636Z,5.67
2023-01-26T12:37:36.097Z,4.77
2023-01-26T12:40:27.040Z,5.10
2023-01-26T12:43:21.194Z,5.90
2023-01-26T12:46:09.272Z,5.03
2023-01-26T12:48:58.399Z,5.30
2023-01-26T12:51:46.773Z,5.03
2023-01-26T12:54:38.043Z,5.70
2023-01-26T12:57:27.850Z,6.03
2023-01-26T13:00:19.870Z,5.73
2023-01-26T13:03:08.893Z,5.73
2023-01-26T13:05:56.269Z,4.37
2023-01-26T13:08:53.941Z,5.03
2023-01-26T13:11:48.200Z,5.43
2023-01-26T13:14:37.928Z,5.90
2023-01-26T13:17:43.612Z,4.53
2023-01-26T13:20:53.342Z,5.03
2023-01-26T13:23:43.586Z,6.33
2023-01-26T13:26:51.610Z,5.30
2023-01-26T13:29:53.608Z,6.23
2023-01-26T13:32:59.644Z,6.47
2023-01-26T13:35:47.149Z,5.57
2023-01-26T13:38:35.429Z,5.93
2023-01-26T13:41:22.621Z,6.43
2023-01-26T13:44:09.882Z,6.10
2023-01-26T13:46:59.920Z,4.63
2023-01-26T13:49:46.428Z,4.70
2023-01-26T13:52:32.596Z,6.03
2023-01-26T13:55:23.634Z,5.77
2023-01-26T13:58:13.674Z,4.80
2023-01-26T14:01:00.881Z,5.20
2023-01-26T14:03:48.760Z,4.53
2023-01-26T14:06:36.766Z,5.90
2023-01-26T14:09:23.482Z,5.20
2023-01-26T14:12:17.958Z,4.63
2023-01-26T14:15:06.015Z,8.50
2023-01-26T14:17:53.401Z,7.17
2023-01-26T14:20:41.084Z,9.50
2023-01-26T14:23:31.432Z,8.77
2023-01-26T14:26:20.492Z,6.43
2023-01-26T14:29:11.749Z,7.00
2023-01-26T14:31:58.761Z,9.83
2023-01-26T14:34:52.898Z,11.10
2023-01-26T14:37:41.046Z,6.07
2023-01-26T14:40:27.583Z,5.83
2023-01-26T14:43:14.791Z,8.83
2023-01-26T14:46:04.102Z,7.03
2023-01-26T14:48:52.656Z,6.40
2023-01-26T14:51:39.736Z,8.23
2023-01-26T14:54:30.462Z,6.33
2023-01-26T14:57:19.750Z,5.80
2023-01-26T15:00:12.410Z,23.37
2023-01-26T15:03:00.154Z,9.50
2023-01-26T15:05:46.519Z,7.10
2023-01-26T15:08:35.865Z,7.60
2023-01-26T15:11:44.464Z,7.27
2023-01-26T15:14:36.293Z,10.80
2023-01-26T15:17:30.384Z,7.20
2023-01-26T15:20:31.598Z,7.50
2023-01-26T15:23:28.792Z,7.30
2023-01-26T15:26:16.411Z,7.30
2023-01-26T15:29:05.781Z,7.80
2023-01-26T15:31:53.210Z,8.30
2023-01-26T15:34:42.210Z,7.23
2023-01-26T15:37:30.232Z,5.93
2023-01-26T15:40:16.741Z,16.20
2023-01-26T15:43:06.684Z,7.07
2023-01-26T15:45:55.336Z,5.97
2023-01-26T15:48:41.466Z,10.97
2023-01-26T15:51:27.639Z,12.33
2023-01-26T15:54:13.858Z,10.23
2023-01-26T15:57:00.333Z,7.67
2023-01-26T15:59:46.507Z,8.70
2023-01-26T16:02:34.349Z,9.13
2023-01-26T16:05:21.505Z,8.83
2023-01-26T16:08:07.586Z,9.97
2023-01-26T16:10:56.815Z,7.37
2023-01-26T16:13:57.339Z,8.47
2023-01-26T16:16:48.616Z,9.53
2023-01-26T16:19:36.284Z,7.67
2023-01-26T16:22:22.805Z,6.67
2023-01-26T16:25:17.585Z,7.63
2023-01-26T16:28:04.303Z,8.20
2023-01-26T16:30:51.416Z,9.80
2023-01-26T16:33:37.809Z,7.10
2023-01-26T16:36:25.636Z,6.13
2023-01-26T16:39:12.073Z,7.07
2023-01-26T16:41:58.753Z,7.80
2023-01-26T16:44:45.766Z,18.43
2023-01-26T16:47:32.691Z,7.47
2023-01-26T16:50:19.410Z,8.47
2023-01-26T16:53:13.892Z,7.20
2023-01-26T16:56:00.172Z,7.30
2023-01-26T16:58:46.798Z,6.27
2023-01-26T17:01:34.474Z,7.60
2023-01-26T17:04:20.604Z,6.80
2023-01-26T17:07:07.072Z,7.33
2023-01-26T17:09:54.761Z,7.50
2023-01-26T17:12:41.558Z,6.63
2023-01-26T17:15:29.271Z,7.70
2023-01-26T17:18:15.722Z,10.57
2023-01-26T17:21:05.196Z,8.53
2023-01-26T17:23:52.038Z,7.33
2023-01-26T17:26:40.068Z,7.93
2023-01-26T17:29:26.404Z,6.87
2023-01-26T17:32:12.552Z,6.10
2023-01-26T17:34:58.901Z,6.13
2023-01-26T17:37:45.313Z,6.50
2023-01-26T17:40:31.551Z,9.17
2023-01-26T17:43:21.864Z,9.80
2023-01-26T17:46:09.269Z,8.30
2023-01-26T17:48:56.007Z,9.23
2023-01-26T17:51:46.772Z,8.23
2023-01-26T17:54:33.255Z,6.97
2023-01-26T17:57:19.308Z,9.27
2023-01-26T18:00:07.625Z,9.27
2023-01-26T18:02:54.137Z,6.43
2023-01-26T18:05:40.790Z,7.30
2023-01-26T18:08:27.492Z,9.77
2023-01-26T18:11:14.840Z,8.17
2023-01-26T18:14:02.802Z,10.37
2023-01-26T18:16:50.644Z,8.23
2023-01-26T18:19:37.093Z,10.03
2023-01-26T18:22:23.218Z,8.80
2023-01-26T18:25:10.340Z,6.03
2023-01-26T18:27:57.563Z,7.80
2023-01-26T18:30:44.750Z,7.17
2023-01-26T18:33:32.951Z,6.77
2023-01-26T18:36:20.591Z,7.10
2023-01-26T18:39:08.144Z,4.97
2023-01-26T18:41:54.736Z,7.67
2023-01-26T18:44:41.183Z,6.87
2023-01-26T18:47:28.657Z,10.60
2023-01-26T18:50:16.941Z,7.37
2023-01-26T18:53:03.981Z,8.60
2023-01-26T18:55:51.357Z,10.37
2023-01-26T18:58:38.221Z,8.80
2023-01-26T19:01:26.023Z,9.73
2023-01-26T19:04:12.888Z,8.27
2023-01-26T19:07:00.796Z,8.67
2023-01-26T19:09:47.387Z,10.80
2023-01-26T19:12:34.031Z,11.97
2023-01-26T19:15:20.169Z,9.17
2023-01-26T19:18:06.727Z,11.83
2023-01-26T19:20:56.988Z,9.93
2023-01-26T19:23:45.324Z,9.00
2023-01-26T19:26:34.789Z,7.87
2023-01-26T19:29:21.900Z,10.00
2023-01-26T19:32:08.352Z,12.33
2023-01-26T19:34:54.805Z,8.80
2023-01-26T19:37:41.322Z,7.67
2023-01-26T19:40:29.555Z,7.97
2023-01-26T19:43:16.470Z,8.87
2023-01-26T19:46:03.579Z,8.47
2023-01-26T19:48:50.300Z,9.30
2023-01-26T19:51:36.328Z,6.90
2023-01-26T19:54:22.801Z,6.93
2023-01-26T19:57:10.506Z,8.70
2023-01-26T19:59:56.837Z,8.20
2023-01-26T20:02:44.490Z,8.13
2023-01-26T20:05:31.319Z,7.40
2023-01-26T20:08:17.417Z,5.77
2023-01-26T20:11:05.627Z,5.30
2023-01-26T20:13:56.907Z,5.20
2023-01-26T20:16:43.450Z,5.47
2023-01-26T20:19:31.967Z,3.87
2023-01-26T20:22:18.150Z,2.60
2023-01-26T20:25:06.488Z,2.27
2023-01-26T20:27:52.919Z,3.63
2023-01-26T20:30:41.085Z,2.33
2023-01-26T20:33:27.802Z,2.67
2023-01-26T20:36:16.586Z,2.93
2023-01-26T20:39:03.692Z,2.83
2023-01-26T20:41:50.172Z,1.83
2023-01-26T20:44:36.201Z,1.60
2023-01-26T20:47:23.934Z,1.40
2023-01-26T20:50:13.920Z,1.60
2023-01-26T20:53:00.488Z,2.50
2023-01-26T20:55:47.004Z,2.13
2023-01-26T20:58:33.115Z,2.00
2023-01-26T21:01:19.664Z,2.57
2023-01-26T21:04:08.173Z,2.77
2023-01-26T21:06:55.510Z,2.00
2023-01-26T21:09:42.132Z,2.00
2023-01-26T21:12:28.399Z,1.80
2023-01-26T21:15:14.681Z,1.67
2023-01-26T21:18:01.066Z,1.30
2023-01-26T21:20:57.288Z,2.03
2023-01-26T21:23:43.470Z,2.80
2023-01-26T21:26:30.053Z,1.93
2023-01-26T21:29:16.792Z,1.00
2023-01-26T21:32:02.798Z,1.67
2023-01-26T21:34:49.056Z,1.60
2023-01-26T21:37:36.624Z,1.50
2023-01-26T21:40:23.123Z,1.53
2023-01-26T21:43:10.023Z,1.50
2023-01-26T21:45:57.006Z,2.27
2023-01-26T21:48:43.628Z,2.07
2023-01-26T21:51:47.351Z,1.50
2023-01-26T21:54:35.845Z,2.23
2023-01-26T21:57:39.672Z,1.97
2023-01-26T22:00:25.847Z,1.50
2023-01-26T22:03:13.334Z,1.53
2023-01-26T22:05:59.683Z,1.70
2023-01-26T22:08:46.069Z,1.60
2023-01-26T22:11:33.698Z,1.53
2023-01-26T22:14:21.613Z,1.73
2023-01-26T22:17:07.955Z,1.57
2023-01-26T22:19:56.230Z,1.20
2023-01-26T22:22:42.436Z,1.70
2023-01-26T22:25:29.199Z,1.50
2023-01-26T22:28:16.714Z,1.17
2023-01-26T22:31:04.970Z,1.90
2023-01-26T22:33:51.538Z,2.10
2023-01-26T22:36:38.291Z,1.37
2023-01-26T22:39:24.586Z,1.03
2023-01-26T22:42:11.054Z,1.30
2023-01-26T22:44:58.798Z,1.90
2023-01-26T22:47:45.041Z,1.80
2023-01-26T22:50:31.658Z,1.73
2023-01-26T22:53:18.012Z,2.47
2023-01-26T22:56:05.072Z,2.37
2023-01-26T22:58:58.004Z,4.13
2023-01-26T23:01:46.371Z,2.47
2023-01-26T23:04:32.811Z,2.83
2023-01-26T23:07:18.984Z,3.83
2023-01-26T23:10:05.724Z,3.27
2023-01-26T23:12:52.201Z,2.10
2023-01-26T23:15:39.210Z,3.10
2023-01-26T23:18:26.780Z,2.27
2023-01-26T23:21:13.685Z,1.83
2023-01-26T23:23:59.859Z,2.47
2023-01-26T23:26:46.095Z,1.93
2023-01-26T23:29:32.655Z,1.90
2023-01-26T23:32:19.182Z,2.23
2023-01-26T23:35:07.444Z,2.10
2023-01-26T23:37:54.223Z,1.67
2023-01-26T23:40:40.708Z,2.40
2023-01-26T23:43:26.706Z,2.57
2023-01-26T23:46:13.360Z,2.30
2023-01-26T23:48:59.859Z,2.90
2023-01-26T23:51:47.822Z,4.63
2023-01-26T23:54:34.162Z,4.97
2023-01-26T23:57:20.752Z,5.53
